Time;durP1;ratioP1;P1;durP2;ratioP2;P2;SDS_P1;SDS_P2;PMS_P1;PMS_P2;Temp;Humidity;BMP_temperature;BMP_pressure;BME280_temperature;BME280_humidity;BME280_pressure;Samples;Min_cycle;Max_cycle;Signal;HPM_P1;HPM_P2
2021/10/23 00:00:48;;;;;;;;;11.25;7.00;;;;;;;;5076702;27;45489;-73
2021/10/23 00:03:14;;;;;;;;;6.00;6.00;;;;;;;;5082395;27;45213;-74
2021/10/23 00:05:39;;;;;;;;;8.50;8.25;;;;;;;;5080141;27;45453;-74
2021/10/23 00:08:04;;;;;;;;;7.00;5.75;;;;;;;;5080309;27;45431;-74
2021/10/23 00:10:29;;;;;;;;;9.00;6.50;;;;;;;;5080085;27;45385;-74
2021/10/23 00:12:54;;;;;;;;;6.75;6.75;;;;;;;;5076191;27;45454;-74
2021/10/23 00:15:20;;;;;;;;;7.75;6.75;;;;;;;;5081741;27;45926;-74
2021/10/23 00:17:45;;;;;;;;;7.00;7.00;;;;;;;;5080097;27;45499;-74
2021/10/23 00:20:10;;;;;;;;;11.00;8.50;;;;;;;;5080098;27;45343;-74
2021/10/23 00:22:36;;;;;;;;;5.75;5.75;;;;;;;;5080139;27;45521;-75
2021/10/23 00:25:01;;;;;;;;;7.25;6.25;;;;;;;;5074713;27;45596;-74
2021/10/23 00:27:26;;;;;;;;;8.00;8.00;;;;;;;;5080979;27;45375;-74
2021/10/23 00:29:52;;;;;;;;;7.00;6.50;;;;;;;;5078508;27;45400;-74
2021/10/23 00:32:18;;;;;;;;;7.75;6.75;;;;;;;;5079925;27;45407;-73
2021/10/23 00:34:43;;;;;;;;;7.75;7.00;;;;;;;;5079867;27;45418;-74
2021/10/23 00:37:09;;;;;;;;;8.75;5.75;;;;;;;;5076769;27;45413;-72
2021/10/23 00:39:34;;;;;;;;;7.00;5.75;;;;;;;;5079143;27;45386;-74
2021/10/23 00:41:59;;;;;;;;;6.00;6.00;;;;;;;;5080726;27;45461;-74
2021/10/23 00:44:27;;;;;;;;;7.75;6.00;;;;;;;;5079944;27;46925;-75
2021/10/23 00:46:52;;;;;;;;;8.00;8.00;;;;;;;;5080640;27;45303;-74
2021/10/23 00:49:17;;;;;;;;;7.75;6.25;;;;;;;;5078489;27;45194;-72
2021/10/23 00:51:43;;;;;;;;;5.00;4.50;;;;;;;;5076288;27;45254;-72
2021/10/23 00:54:09;;;;;;;;;10.00;7.00;;;;;;;;5081658;27;45332;-74
2021/10/23 00:56:34;;;;;;;;;5.50;5.00;;;;;;;;5079491;27;45529;-74
2021/10/23 00:59:00;;;;;;;;;6.25;5.25;;;;;;;;5079424;27;45288;-72
2021/10/23 01:01:25;;;;;;;;;5.25;5.25;;;;;;;;5078868;27;45528;-72
2021/10/23 01:03:50;;;;;;;;;7.00;5.25;;;;;;;;5074515;27;45210;-72
2021/10/23 01:06:15;;;;;;;;;7.50;6.50;;;;;;;;5080347;27;45336;-74
2021/10/23 01:08:41;;;;;;;;;9.75;9.75;;;;;;;;5077584;27;45278;-74
2021/10/23 01:11:06;;;;;;;;;7.75;7.00;;;;;;;;5061103;28;45720;-74
2021/10/23 01:13:31;;;;;;;;;6.25;6.00;;;;;;;;5079329;27;46539;-74
2021/10/23 01:15:56;;;;;;;;;10.00;7.00;;;;;;;;5056982;27;45554;-75
2021/10/23 01:18:21;;;;;;;;;8.75;7.25;;;;;;;;5081737;27;45365;-74
2021/10/23 01:20:47;;;;;;;;;5.00;5.00;;;;;;;;5078973;27;45535;-74
2021/10/23 01:23:12;;;;;;;;;8.75;6.25;;;;;;;;5060813;28;46107;-74
2021/10/23 01:25:37;;;;;;;;;7.75;5.75;;;;;;;;5078922;27;45474;-74
2021/10/23 01:28:03;;;;;;;;;5.50;5.50;;;;;;;;5075507;27;45383;-74
2021/10/23 01:30:29;;;;;;;;;9.00;7.00;;;;;;;;5078791;27;45538;-73
2021/10/23 01:32:54;;;;;;;;;9.25;6.00;;;;;;;;5079213;27;45386;-72
2021/10/23 01:35:24;;;;;;;;;7.50;6.00;;;;;;;;5078371;27;45449;-74
2021/10/23 01:37:49;;;;;;;;;8.25;7.00;;;;;;;;5078974;27;45489;-73
2021/10/23 01:40:16;;;;;;;;;5.75;5.00;;;;;;;;5077300;27;45645;-74
2021/10/23 01:42:42;;;;;;;;;5.00;3.50;;;;;;;;5076344;27;45543;-73
2021/10/23 01:45:08;;;;;;;;;8.50;6.50;;;;;;;;5078988;27;45399;-74
2021/10/23 01:47:34;;;;;;;;;9.00;6.50;;;;;;;;5077415;27;45466;-73
2021/10/23 01:49:59;;;;;;;;;6.50;6.50;;;;;;;;5078176;27;45399;-73
2021/10/23 01:52:25;;;;;;;;;8.75;7.75;;;;;;;;5078331;27;47149;-74
2021/10/23 01:54:50;;;;;;;;;3.00;3.00;;;;;;;;5074710;27;45440;-74
2021/10/23 01:57:15;;;;;;;;;5.00;4.75;;;;;;;;5080785;27;45350;-73
2021/10/23 01:59:40;;;;;;;;;7.50;7.50;;;;;;;;5078719;27;45453;-73
2021/10/23 02:02:06;;;;;;;;;7.00;4.75;;;;;;;;5078687;27;46227;-73
2021/10/23 02:04:31;;;;;;;;;5.00;4.00;;;;;;;;5078452;27;45474;-73
2021/10/23 02:06:56;;;;;;;;;8.50;7.00;;;;;;;;5074689;27;45370;-73
2021/10/23 02:09:22;;;;;;;;;8.00;7.00;;;;;;;;5080793;27;45299;-74
2021/10/23 02:11:47;;;;;;;;;7.50;5.00;;;;;;;;5078705;27;46463;-74
2021/10/23 02:14:12;;;;;;;;;9.50;6.75;;;;;;;;5078669;27;45297;-73
2021/10/23 02:16:38;;;;;;;;;9.75;7.00;;;;;;;;5078150;27;45366;-74
2021/10/23 02:19:03;;;;;;;;;8.25;6.50;;;;;;;;5074575;27;45414;-73
2021/10/23 02:21:28;;;;;;;;;4.75;4.75;;;;;;;;5078058;27;45367;-73
2021/10/23 02:23:53;;;;;;;;;5.75;5.75;;;;;;;;5077646;27;45796;-73
2021/10/23 02:26:19;;;;;;;;;5.00;4.00;;;;;;;;5077138;27;45291;-73
2021/10/23 02:28:44;;;;;;;;;5.00;5.00;;;;;;;;5078149;27;45433;-73
2021/10/23 02:31:10;;;;;;;;;8.50;5.75;;;;;;;;5075316;27;45997;-73
2021/10/23 02:33:35;;;;;;;;;7.00;4.75;;;;;;;;5076433;27;45458;-74
2021/10/23 02:36:00;;;;;;;;;7.00;5.00;;;;;;;;5079389;27;45463;-74
2021/10/23 02:38:26;;;;;;;;;4.75;4.00;;;;;;;;5078194;27;45569;-74
2021/10/23 02:40:51;;;;;;;;;6.75;6.75;;;;;;;;5078063;27;45347;-73
2021/10/23 02:43:17;;;;;;;;;7.50;6.75;;;;;;;;5076505;27;45476;-73
2021/10/23 02:45:42;;;;;;;;;7.50;5.75;;;;;;;;5057083;28;45498;-74
2021/10/23 02:48:07;;;;;;;;;6.25;5.00;;;;;;;;5061490;28;45754;-73
2021/10/23 02:50:32;;;;;;;;;5.00;5.00;;;;;;;;5077663;27;46398;-74
2021/10/23 02:52:58;;;;;;;;;3.75;3.75;;;;;;;;5077772;27;45541;-73
2021/10/23 02:55:24;;;;;;;;;6.00;5.00;;;;;;;;5077653;27;45382;-73
2021/10/23 02:57:50;;;;;;;;;7.00;5.00;;;;;;;;5073461;27;45524;-73
2021/10/23 03:00:15;;;;;;;;;7.00;5.00;;;;;;;;5079456;27;46071;-74
2021/10/23 03:02:41;;;;;;;;;4.25;4.00;;;;;;;;5075812;27;45761;-73
2021/10/23 03:05:06;;;;;;;;;5.75;5.00;;;;;;;;5076252;27;45379;-73
2021/10/23 03:07:32;;;;;;;;;8.25;6.00;;;;;;;;5077674;27;45363;-73
2021/10/23 03:09:57;;;;;;;;;6.00;6.00;;;;;;;;5073390;27;46288;-73
2021/10/23 03:12:22;;;;;;;;;6.00;6.00;;;;;;;;5079179;27;45291;-73
2021/10/23 03:14:48;;;;;;;;;10.25;7.00;;;;;;;;5077196;27;45583;-72
2021/10/23 03:17:13;;;;;;;;;7.00;7.00;;;;;;;;5077144;27;45431;-73
2021/10/23 03:19:38;;;;;;;;;5.50;4.75;;;;;;;;5077247;27;45372;-72
2021/10/23 03:22:03;;;;;;;;;6.75;6.00;;;;;;;;5074407;27;45482;-73
2021/10/23 03:24:29;;;;;;;;;4.00;4.00;;;;;;;;5059230;28;45294;-73
2021/10/23 03:26:54;;;;;;;;;8.25;8.00;;;;;;;;5078016;27;45941;-73
2021/10/23 03:29:19;;;;;;;;;5.75;5.75;;;;;;;;5077248;27;46177;-73
2021/10/23 03:31:45;;;;;;;;;8.00;6.50;;;;;;;;5078543;27;45429;-74
2021/10/23 03:34:10;;;;;;;;;7.00;6.25;;;;;;;;5078687;27;45497;-73
2021/10/23 03:36:36;;;;;;;;;5.25;4.25;;;;;;;;5079014;27;45425;-74
2021/10/23 03:39:01;;;;;;;;;7.00;6.00;;;;;;;;5081993;27;45492;-73
2021/10/23 03:41:26;;;;;;;;;4.75;4.50;;;;;;;;5079090;27;45497;-74
2021/10/23 03:43:51;;;;;;;;;8.75;8.75;;;;;;;;5078997;27;45389;-73
2021/10/23 03:46:16;;;;;;;;;5.25;4.75;;;;;;;;5079343;27;45558;-74
2021/10/23 03:48:42;;;;;;;;;7.00;6.00;;;;;;;;5077593;27;45355;-73
2021/10/23 03:51:07;;;;;;;;;4.25;4.25;;;;;;;;5082514;27;45537;-73
2021/10/23 03:53:32;;;;;;;;;7.50;7.00;;;;;;;;5080579;27;45505;-74
2021/10/23 03:55:57;;;;;;;;;7.25;4.75;;;;;;;;5080286;27;45464;-73
2021/10/23 03:58:23;;;;;;;;;7.75;6.25;;;;;;;;5079821;27;45889;-73
2021/10/23 04:00:48;;;;;;;;;5.75;5.75;;;;;;;;5076414;27;45304;-73
2021/10/23 04:03:13;;;;;;;;;5.00;5.00;;;;;;;;5082761;27;45438;-72
2021/10/23 04:05:38;;;;;;;;;3.75;3.75;;;;;;;;5062321;28;45684;-73
2021/10/23 04:08:03;;;;;;;;;5.75;5.75;;;;;;;;5080016;27;47159;-73
2021/10/23 04:10:29;;;;;;;;;5.25;4.25;;;;;;;;5080186;27;45503;-73
2021/10/23 04:12:54;;;;;;;;;7.00;6.75;;;;;;;;5075509;27;45390;-73
2021/10/23 04:15:19;;;;;;;;;9.00;7.00;;;;;;;;5081799;27;45303;-74
2021/10/23 04:17:44;;;;;;;;;8.50;6.00;;;;;;;;5080246;27;46049;-74
2021/10/23 04:20:10;;;;;;;;;4.50;4.25;;;;;;;;5078743;27;45450;-73
2021/10/23 04:22:35;;;;;;;;;6.50;5.50;;;;;;;;5078894;27;45443;-74
2021/10/23 04:25:00;;;;;;;;;7.00;7.00;;;;;;;;5076724;27;45355;-73
2021/10/23 04:27:26;;;;;;;;;6.50;5.00;;;;;;;;5080503;27;45410;-74
2021/10/23 04:29:51;;;;;;;;;7.25;7.25;;;;;;;;5080298;27;45304;-73
2021/10/23 04:32:17;;;;;;;;;8.50;7.50;;;;;;;;5079949;27;45411;-74
2021/10/23 04:34:43;;;;;;;;;5.00;5.00;;;;;;;;5079954;27;45454;-74
2021/10/23 04:37:08;;;;;;;;;9.50;8.50;;;;;;;;5076975;27;45933;-73
2021/10/23 04:39:34;;;;;;;;;8.75;6.50;;;;;;;;5060097;28;45552;-73
2021/10/23 04:41:59;;;;;;;;;7.00;5.00;;;;;;;;5081032;27;45295;-73
2021/10/23 04:44:25;;;;;;;;;5.00;5.00;;;;;;;;5078381;27;47416;-73
2021/10/23 04:46:50;;;;;;;;;8.25;6.00;;;;;;;;5079518;27;45255;-74
2021/10/23 04:49:15;;;;;;;;;5.00;5.00;;;;;;;;5078164;27;45356;-73
2021/10/23 04:51:41;;;;;;;;;7.00;6.75;;;;;;;;5076526;27;45399;-73
2021/10/23 04:54:06;;;;;;;;;5.50;5.50;;;;;;;;5081423;27;45207;-73
2021/10/23 04:56:32;;;;;;;;;7.50;6.00;;;;;;;;5078857;27;47285;-73
2021/10/23 04:58:57;;;;;;;;;6.50;6.00;;;;;;;;5077575;27;45402;-73
2021/10/23 05:01:22;;;;;;;;;9.75;7.75;;;;;;;;5077316;27;45387;-73
2021/10/23 05:03:48;;;;;;;;;7.75;4.75;;;;;;;;5075661;27;45387;-73
2021/10/23 05:06:13;;;;;;;;;7.00;6.25;;;;;;;;5080806;27;46378;-74
2021/10/23 05:08:38;;;;;;;;;7.00;6.00;;;;;;;;5079143;27;45571;-73
2021/10/23 05:11:05;;;;;;;;;6.25;5.00;;;;;;;;5079407;27;45419;-72
2021/10/23 05:13:30;;;;;;;;;3.75;3.75;;;;;;;;5078764;27;45461;-73
2021/10/23 05:15:55;;;;;;;;;10.75;9.75;;;;;;;;5073939;27;46468;-72
2021/10/23 05:18:21;;;;;;;;;8.75;7.75;;;;;;;;5080987;27;45478;-73
2021/10/23 05:20:46;;;;;;;;;9.00;5.75;;;;;;;;5079720;27;45354;-74
2021/10/23 05:23:11;;;;;;;;;6.00;6.00;;;;;;;;5079449;27;45449;-74
2021/10/23 05:25:36;;;;;;;;;3.50;3.50;;;;;;;;5078503;27;46346;-74
2021/10/23 05:28:02;;;;;;;;;8.00;5.25;;;;;;;;5075215;27;45458;-74
2021/10/23 05:30:27;;;;;;;;;7.25;6.25;;;;;;;;5079693;27;45613;-75
2021/10/23 05:32:52;;;;;;;;;5.00;5.00;;;;;;;;5077962;27;45465;-73
2021/10/23 05:35:17;;;;;;;;;4.00;4.00;;;;;;;;5078661;27;46214;-73
2021/10/23 05:37:43;;;;;;;;;7.50;6.00;;;;;;;;5077137;27;45213;-74
2021/10/23 05:40:09;;;;;;;;;7.50;6.50;;;;;;;;5074975;27;45316;-73
2021/10/23 05:42:34;;;;;;;;;7.00;6.00;;;;;;;;5076970;27;46008;-73
2021/10/23 05:45:00;;;;;;;;;8.00;6.00;;;;;;;;5079353;27;45436;-73
2021/10/23 05:47:25;;;;;;;;;5.25;5.25;;;;;;;;5078108;27;45793;-73
2021/10/23 05:49:50;;;;;;;;;6.00;6.00;;;;;;;;5078071;27;45481;-73
2021/10/23 05:52:15;;;;;;;;;7.00;6.00;;;;;;;;5075671;27;45367;-74
2021/10/23 05:54:40;;;;;;;;;4.75;4.75;;;;;;;;5074247;27;45524;-73
2021/10/23 05:57:06;;;;;;;;;8.00;7.00;;;;;;;;5079721;27;45304;-74
2021/10/23 05:59:32;;;;;;;;;4.75;4.00;;;;;;;;5078397;27;45512;-73
2021/10/23 06:02:11;;;;;;;;;6.75;5.75;;;;;;;;5078417;27;45561;-73
2021/10/23 06:04:36;;;;;;;;;8.75;7.00;;;;;;;;5078047;27;47096;-73
2021/10/23 06:07:03;;;;;;;;;5.00;4.75;;;;;;;;5074863;27;45386;-74
2021/10/23 06:09:28;;;;;;;;;6.50;5.75;;;;;;;;5078443;27;45412;-72
2021/10/23 06:11:59;;;;;;;;;4.00;4.00;;;;;;;;5078136;27;45590;-76
2021/10/23 06:14:25;;;;;;;;;4.75;4.75;;;;;;;;5077713;27;47037;-74
2021/10/23 06:16:50;;;;;;;;;7.00;6.00;;;;;;;;5076339;27;45523;-74
2021/10/23 06:19:15;;;;;;;;;5.75;5.75;;;;;;;;5075235;27;45556;-73
2021/10/23 06:21:40;;;;;;;;;8.00;7.00;;;;;;;;5075194;27;45434;-73
2021/10/23 06:24:05;;;;;;;;;5.50;5.00;;;;;;;;5080143;27;47347;-74
2021/10/23 06:26:31;;;;;;;;;12.00;8.50;;;;;;;;5077543;27;45440;-75
2021/10/23 06:28:56;;;;;;;;;6.50;5.00;;;;;;;;5076232;27;45326;-74
2021/10/23 06:31:21;;;;;;;;;5.75;4.75;;;;;;;;5077018;27;45282;-73
2021/10/23 06:33:46;;;;;;;;;6.00;4.25;;;;;;;;5056060;28;47041;-74
2021/10/23 06:36:11;;;;;;;;;7.75;6.00;;;;;;;;5094673;27;45303;-74
2021/10/23 06:38:36;;;;;;;;;8.50;7.50;;;;;;;;5079956;27;45319;-74
2021/10/23 06:41:02;;;;;;;;;6.75;6.75;;;;;;;;5059716;28;45624;-74
2021/10/23 06:43:27;;;;;;;;;6.00;5.00;;;;;;;;5077389;27;45881;-76
2021/10/23 06:45:53;;;;;;;;;6.00;6.00;;;;;;;;5056541;28;45533;-73
2021/10/23 06:48:18;;;;;;;;;6.75;6.75;;;;;;;;5074847;27;45282;-74
2021/10/23 06:50:43;;;;;;;;;7.00;6.25;;;;;;;;5076079;27;45454;-74
2021/10/23 06:53:08;;;;;;;;;6.50;6.50;;;;;;;;5076523;27;45280;-74
2021/10/23 06:55:33;;;;;;;;;5.25;5.00;;;;;;;;5075009;27;45437;-74
2021/10/23 06:57:59;;;;;;;;;7.25;5.50;;;;;;;;5071500;27;45323;-74
2021/10/23 07:00:24;;;;;;;;;7.50;6.00;;;;;;;;5078791;27;45332;-74
2021/10/23 07:02:50;;;;;;;;;8.25;7.25;;;;;;;;5075169;27;45292;-72
2021/10/23 07:05:16;;;;;;;;;9.25;9.25;;;;;;;;5076818;27;45596;-70
2021/10/23 07:07:41;;;;;;;;;8.75;7.50;;;;;;;;5079693;27;45292;-71
2021/10/23 07:10:07;;;;;;;;;11.25;10.50;;;;;;;;5077244;27;45558;-71
2021/10/23 07:12:32;;;;;;;;;7.50;7.50;;;;;;;;5079581;27;45765;-73
2021/10/23 07:14:57;;;;;;;;;10.00;7.50;;;;;;;;5081225;27;45653;-73
2021/10/23 07:17:23;;;;;;;;;8.50;8.25;;;;;;;;5080279;27;45522;-74
2021/10/23 07:19:48;;;;;;;;;6.50;6.50;;;;;;;;5080335;27;45344;-74
2021/10/23 07:22:13;;;;;;;;;9.25;6.00;;;;;;;;5059979;27;47849;-73
2021/10/23 07:24:39;;;;;;;;;9.00;8.50;;;;;;;;5059312;28;45520;-74
2021/10/23 07:27:04;;;;;;;;;8.25;7.25;;;;;;;;5082101;27;45418;-74
2021/10/23 07:29:29;;;;;;;;;9.00;6.00;;;;;;;;5079728;27;45540;-72
2021/10/23 07:31:54;;;;;;;;;8.75;8.00;;;;;;;;5079472;27;46395;-73
2021/10/23 07:34:19;;;;;;;;;8.50;7.50;;;;;;;;5078678;27;45533;-73
2021/10/23 07:36:45;;;;;;;;;4.00;4.00;;;;;;;;5076409;27;45385;-72
2021/10/23 07:39:10;;;;;;;;;9.00;9.00;;;;;;;;5079930;27;45519;-74
2021/10/23 07:41:38;;;;;;;;;11.00;7.75;;;;;;;;5079295;27;46129;-74
2021/10/23 07:44:03;;;;;;;;;9.25;7.25;;;;;;;;5078963;27;45518;-72
2021/10/23 07:46:28;;;;;;;;;10.00;7.75;;;;;;;;5079954;27;45636;-74
2021/10/23 07:48:54;;;;;;;;;12.25;8.25;;;;;;;;5075675;27;45371;-74
2021/10/23 07:51:19;;;;;;;;;9.00;7.00;;;;;;;;5081386;27;47457;-75
2021/10/23 07:53:44;;;;;;;;;11.75;11.75;;;;;;;;5080252;27;45263;-75
2021/10/23 07:56:09;;;;;;;;;9.25;8.50;;;;;;;;5079750;27;45504;-74
2021/10/23 07:58:35;;;;;;;;;8.50;8.50;;;;;;;;5079227;27;45210;-74
2021/10/23 08:01:01;;;;;;;;;11.00;10.00;;;;;;;;5076125;27;47102;-74
2021/10/23 08:03:27;;;;;;;;;8.00;6.75;;;;;;;;5080153;27;45304;-74
2021/10/23 08:05:52;;;;;;;;;14.00;7.75;;;;;;;;5079293;27;45411;-74
2021/10/23 08:08:17;;;;;;;;;10.00;8.50;;;;;;;;5079149;27;45407;-73
2021/10/23 08:10:42;;;;;;;;;19.25;16.50;;;;;;;;5077873;27;45401;-73
2021/10/23 08:13:08;;;;;;;;;14.25;12.75;;;;;;;;5075043;27;45347;-74
2021/10/23 08:15:33;;;;;;;;;7.25;6.75;;;;;;;;5078075;27;45466;-76
2021/10/23 08:17:59;;;;;;;;;10.00;10.00;;;;;;;;5077172;27;45434;-74
2021/10/23 08:20:25;;;;;;;;;5.75;5.75;;;;;;;;5078631;27;46657;-74
2021/10/23 08:22:50;;;;;;;;;7.75;7.75;;;;;;;;5078659;27;45355;-74
2021/10/23 08:25:16;;;;;;;;;8.00;6.75;;;;;;;;5077625;27;45307;-72
2021/10/23 08:27:42;;;;;;;;;7.25;7.00;;;;;;;;5076522;27;45256;-73
2021/10/23 08:30:09;;;;;;;;;6.50;5.75;;;;;;;;5070878;27;46221;-69
2021/10/23 08:32:35;;;;;;;;;9.00;9.00;;;;;;;;5081139;27;45293;-69
2021/10/23 08:35:00;;;;;;;;;5.50;5.50;;;;;;;;5079326;27;45332;-71
2021/10/23 08:37:25;;;;;;;;;9.50;6.75;;;;;;;;5078356;27;45447;-71
2021/10/23 08:39:51;;;;;;;;;11.00;7.75;;;;;;;;5074563;27;47449;-70
2021/10/23 08:42:16;;;;;;;;;6.50;6.50;;;;;;;;5080999;27;45371;-69
2021/10/23 08:44:42;;;;;;;;;6.75;6.75;;;;;;;;5077089;27;45522;-70
2021/10/23 08:47:08;;;;;;;;;7.00;6.00;;;;;;;;5078424;27;45495;-70
2021/10/23 08:49:35;;;;;;;;;6.00;6.00;;;;;;;;5078352;27;47353;-72
2021/10/23 08:52:02;;;;;;;;;7.25;7.25;;;;;;;;5072096;27;45467;-71
2021/10/23 08:54:40;;;;;;;;;9.50;7.25;;;;;;;;5079557;27;45590;-72
2021/10/23 08:57:15;;;;;;;;;5.50;5.25;;;;;;;;5079584;27;45403;-73
2021/10/23 08:59:42;;;;;;;;;9.50;8.00;;;;;;;;5077467;27;46242;-73
2021/10/23 09:02:18;;;;;;;;;7.25;7.25;;;;;;;;5078842;27;45579;-73
2021/10/23 09:04:45;;;;;;;;;7.00;7.00;;;;;;;;5077732;27;45406;-75
2021/10/23 09:07:14;;;;;;;;;5.75;5.75;;;;;;;;5076008;27;45485;-75
2021/10/23 09:09:50;;;;;;;;;11.50;9.25;;;;;;;;5076262;27;46348;-74
2021/10/23 09:12:16;;;;;;;;;8.75;6.50;;;;;;;;5079764;27;45276;-74
2021/10/23 09:14:42;;;;;;;;;8.00;7.00;;;;;;;;5078245;27;45663;-76
2021/10/23 09:17:09;;;;;;;;;6.25;4.00;;;;;;;;5059989;28;45523;-74
2021/10/23 09:19:42;;;;;;;;;13.75;11.00;;;;;;;;5077827;27;47290;-74
2021/10/23 09:22:19;;;;;;;;;10.25;8.00;;;;;;;;5075067;27;45410;-74
2021/10/23 09:24:45;;;;;;;;;4.25;4.00;;;;;;;;5074842;27;45370;-74
2021/10/23 09:27:16;;;;;;;;;11.00;9.75;;;;;;;;5080060;27;45394;-75
2021/10/23 09:29:42;;;;;;;;;13.75;10.25;;;;;;;;5077577;27;46986;-74
2021/10/23 09:32:08;;;;;;;;;13.75;10.50;;;;;;;;5075958;27;45473;-74
2021/10/23 09:34:34;;;;;;;;;4.75;4.75;;;;;;;;5075624;27;45457;-74
2021/10/23 09:37:02;;;;;;;;;8.75;7.50;;;;;;;;5073605;27;45285;-74
2021/10/23 09:39:28;;;;;;;;;9.00;8.00;;;;;;;;5077589;27;46540;-74
2021/10/23 09:42:07;;;;;;;;;6.00;6.00;;;;;;;;5076323;27;45221;-73
2021/10/23 09:44:32;;;;;;;;;12.75;8.00;;;;;;;;5077369;27;45479;-74
2021/10/23 09:46:57;;;;;;;;;10.50;9.00;;;;;;;;5076995;27;45414;-74
2021/10/23 09:49:26;;;;;;;;;7.50;6.00;;;;;;;;5075562;27;46301;-75
2021/10/23 09:52:07;;;;;;;;;2.25;2.25;;;;;;;;5072894;27;45353;-74
2021/10/23 09:54:34;;;;;;;;;4.25;4.25;;;;;;;;5087792;27;45370;-74
2021/10/23 09:57:07;;;;;;;;;15.75;12.25;;;;;;;;5078223;27;45401;-73
2021/10/23 09:59:35;;;;;;;;;8.75;8.00;;;;;;;;5077273;27;45621;-74
2021/10/23 10:02:01;;;;;;;;;9.75;8.50;;;;;;;;5077308;27;45629;-74
2021/10/23 10:04:28;;;;;;;;;11.75;9.00;;;;;;;;5076882;27;45413;-74
2021/10/23 10:06:53;;;;;;;;;14.25;11.00;;;;;;;;5056779;27;45470;-72
2021/10/23 10:09:19;;;;;;;;;12.75;12.75;;;;;;;;5078358;27;46412;-73
2021/10/23 10:11:47;;;;;;;;;11.25;9.00;;;;;;;;5076259;27;46265;-75
2021/10/23 10:14:13;;;;;;;;;12.00;8.25;;;;;;;;5075768;27;45449;-72
2021/10/23 10:16:42;;;;;;;;;7.75;6.75;;;;;;;;5076928;27;45450;-74
2021/10/23 10:19:07;;;;;;;;;8.75;7.25;;;;;;;;5073024;27;47175;-72
2021/10/23 10:21:34;;;;;;;;;10.50;10.00;;;;;;;;5076355;27;45181;-71
2021/10/23 10:23:59;;;;;;;;;7.25;7.25;;;;;;;;5077160;27;45495;-74
2021/10/23 10:26:25;;;;;;;;;11.25;8.75;;;;;;;;5077203;27;45401;-74
2021/10/23 10:32:36;;;;;;;;;9.50;7.75;;;;;;;;5077362;27;45510;-75
2021/10/23 10:45:37;;;;;;;;;11.00;11.00;;;;;;;;5079388;27;45392;-75
2021/10/23 10:48:16;;;;;;;;;8.00;3.00;;;;;;;;5078518;27;45749;-75
2021/10/23 10:50:50;;;;;;;;;10.75;10.75;;;;;;;;5075730;27;46129;-75
2021/10/23 10:53:21;;;;;;;;;7.00;6.33;;;;;;;;5077264;27;45331;-76
2021/10/23 10:56:16;;;;;;;;;5.00;5.00;;;;;;;;5075593;27;45331;-75
2021/10/23 10:58:43;;;;;;;;;9.25;7.00;;;;;;;;5058933;27;45515;-75
2021/10/23 11:01:13;;;;;;;;;12.00;9.25;;;;;;;;5073223;27;45676;-76
2021/10/23 11:03:38;;;;;;;;;19.50;18.25;;;;;;;;5074473;27;45489;-76
2021/10/23 11:06:22;;;;;;;;;14.50;13.50;;;;;;;;5086922;27;45378;-75
2021/10/23 11:08:47;;;;;;;;;12.00;7.75;;;;;;;;5076257;27;45189;-75
2021/10/23 11:11:12;;;;;;;;;7.25;6.50;;;;;;;;5075460;27;45473;-73
2021/10/23 11:13:44;;;;;;;;;8.25;5.50;;;;;;;;5076291;27;45566;-74
2021/10/23 11:16:22;;;;;;;;;9.00;7.00;;;;;;;;5073287;27;45420;-74
2021/10/23 11:18:54;;;;;;;;;19.50;16.25;;;;;;;;5072666;27;45498;-73
2021/10/23 11:21:20;;;;;;;;;16.25;13.25;;;;;;;;5077886;27;46205;-74
2021/10/23 11:23:50;;;;;;;;;8.75;5.50;;;;;;;;5075887;27;45530;-72
2021/10/23 11:26:15;;;;;;;;;4.75;4.00;;;;;;;;5076310;27;45433;-74
2021/10/23 11:28:41;;;;;;;;;8.00;4.75;;;;;;;;5074322;27;45490;-75
2021/10/23 11:31:15;;;;;;;;;10.00;7.50;;;;;;;;5070981;27;46350;-74
2021/10/23 11:33:41;;;;;;;;;3.25;3.00;;;;;;;;5073747;27;45488;-74
2021/10/23 11:36:13;;;;;;;;;23.00;21.50;;;;;;;;5077989;27;45334;-73
2021/10/23 11:38:38;;;;;;;;;28.25;24.00;;;;;;;;5076263;27;45371;-73
2021/10/23 11:41:04;;;;;;;;;7.75;6.50;;;;;;;;5074461;27;45899;-73
2021/10/23 11:43:32;;;;;;;;;7.75;7.50;;;;;;;;5075886;27;45371;-73
2021/10/23 11:45:59;;;;;;;;;16.00;13.75;;;;;;;;5070745;27;45224;-74
2021/10/23 11:48:25;;;;;;;;;12.50;9.50;;;;;;;;5077162;27;45490;-74
2021/10/23 11:50:51;;;;;;;;;13.25;11.25;;;;;;;;5075043;27;47114;-73
2021/10/23 11:53:30;;;;;;;;;14.25;11.75;;;;;;;;5077938;27;45221;-73
2021/10/23 11:56:01;;;;;;;;;16.00;14.25;;;;;;;;5079527;27;45281;-72
2021/10/23 11:58:28;;;;;;;;;10.50;8.25;;;;;;;;5079152;27;45391;-74
2021/10/23 12:00:59;;;;;;;;;11.00;11.00;;;;;;;;5074344;27;45412;-72
2021/10/23 12:03:29;;;;;;;;;17.00;14.50;;;;;;;;5088873;27;45354;-73
2021/10/23 12:05:55;;;;;;;;;5.00;5.00;;;;;;;;5078510;27;45362;-72
2021/10/23 12:08:24;;;;;;;;;8.50;5.00;;;;;;;;5077658;27;45465;-74
2021/10/23 12:10:59;;;;;;;;;8.50;8.50;;;;;;;;5077446;27;46226;-72
2021/10/23 12:13:25;;;;;;;;;11.75;11.25;;;;;;;;5078702;27;45229;-73
2021/10/23 12:16:00;;;;;;;;;14.00;12.50;;;;;;;;5075283;27;45397;-72
2021/10/23 12:18:26;;;;;;;;;9.25;9.00;;;;;;;;5089234;27;45239;-73
2021/10/23 12:20:51;;;;;;;;;14.75;11.50;;;;;;;;5077518;27;48848;-73
2021/10/23 12:23:36;;;;;;;;;30.25;24.75;;;;;;;;5079206;27;45484;-74
2021/10/23 12:26:05;;;;;;;;;13.00;13.00;;;;;;;;5078640;27;45579;-75
2021/10/23 12:28:30;;;;;;;;;11.75;11.75;;;;;;;;5078362;27;45389;-73
2021/10/23 12:30:55;;;;;;;;;28.75;27.50;;;;;;;;5074122;27;45382;-73
2021/10/23 12:33:21;;;;;;;;;10.00;9.50;;;;;;;;5080065;27;45509;-74
2021/10/23 12:35:46;;;;;;;;;11.25;10.75;;;;;;;;5078429;27;45362;-72
2021/10/23 12:38:12;;;;;;;;;14.00;10.75;;;;;;;;5078680;27;45465;-74
2021/10/23 12:40:39;;;;;;;;;17.00;12.00;;;;;;;;5078520;27;46160;-74
2021/10/23 12:43:06;;;;;;;;;17.00;15.00;;;;;;;;5075122;27;45419;-73
2021/10/23 12:45:33;;;;;;;;;9.00;9.00;;;;;;;;5078740;27;45390;-73
2021/10/23 12:48:02;;;;;;;;;16.50;16.50;;;;;;;;5079540;27;45352;-74
2021/10/23 12:50:27;;;;;;;;;10.25;9.75;;;;;;;;5071351;27;46437;-75
2021/10/23 12:52:53;;;;;;;;;11.00;10.00;;;;;;;;5074757;27;45363;-75
2021/10/23 12:55:19;;;;;;;;;10.50;10.50;;;;;;;;5089748;27;45378;-73
2021/10/23 12:57:44;;;;;;;;;8.25;8.25;;;;;;;;5074644;27;45392;-74
2021/10/23 13:00:10;;;;;;;;;17.75;17.00;;;;;;;;5079742;27;45278;-74
2021/10/23 13:02:36;;;;;;;;;16.75;15.75;;;;;;;;5078433;27;45343;-74
2021/10/23 13:05:02;;;;;;;;;12.75;11.75;;;;;;;;5077449;27;49474;-73
2021/10/23 13:07:27;;;;;;;;;15.00;14.00;;;;;;;;5077624;27;45618;-74
2021/10/23 13:09:55;;;;;;;;;23.50;19.50;;;;;;;;5073523;27;45443;-73
2021/10/23 13:12:21;;;;;;;;;15.50;15.50;;;;;;;;5079333;27;45426;-73
2021/10/23 13:14:46;;;;;;;;;12.50;12.00;;;;;;;;5077717;27;45420;-75
2021/10/23 13:17:11;;;;;;;;;12.00;9.75;;;;;;;;5077632;27;45402;-73
2021/10/23 13:19:36;;;;;;;;;23.75;19.00;;;;;;;;5077519;27;46262;-74
2021/10/23 13:22:02;;;;;;;;;15.50;15.00;;;;;;;;5055779;27;45419;-73
2021/10/23 13:24:27;;;;;;;;;12.25;12.25;;;;;;;;5079164;27;45680;-74
2021/10/23 13:26:52;;;;;;;;;16.00;14.25;;;;;;;;5057580;28;45573;-74
2021/10/23 13:29:17;;;;;;;;;14.00;13.00;;;;;;;;5076206;27;47090;-74
2021/10/23 13:31:44;;;;;;;;;15.75;13.00;;;;;;;;5077531;27;45554;-74
2021/10/23 13:34:10;;;;;;;;;11.50;11.00;;;;;;;;5074771;27;45403;-74
2021/10/23 13:36:35;;;;;;;;;13.00;13.00;;;;;;;;5076496;27;45339;-74
2021/10/23 13:39:01;;;;;;;;;23.50;21.25;;;;;;;;5078674;27;46291;-72
2021/10/23 13:41:27;;;;;;;;;35.25;31.75;;;;;;;;5077463;27;45556;-71
2021/10/23 13:43:52;;;;;;;;;36.75;35.50;;;;;;;;5077781;27;45315;-72
2021/10/23 13:46:17;;;;;;;;;8.00;7.75;;;;;;;;5057540;27;46392;-70
2021/10/23 13:48:42;;;;;;;;;18.00;15.00;;;;;;;;5074413;27;46814;-72
2021/10/23 13:51:08;;;;;;;;;19.75;17.50;;;;;;;;5079163;27;45422;-73
2021/10/23 13:53:35;;;;;;;;;11.50;10.25;;;;;;;;5077653;27;45482;-71
2021/10/23 13:56:00;;;;;;;;;11.75;11.00;;;;;;;;5058973;27;45465;-74
2021/10/23 13:58:25;;;;;;;;;12.50;12.50;;;;;;;;5076284;27;45457;-72
2021/10/23 14:00:51;;;;;;;;;16.75;15.75;;;;;;;;5073437;27;45395;-75
2021/10/23 14:03:19;;;;;;;;;15.25;15.25;;;;;;;;5079451;27;45458;-73
2021/10/23 14:05:46;;;;;;;;;11.50;10.25;;;;;;;;5057477;28;45321;-71
2021/10/23 14:08:11;;;;;;;;;17.75;16.75;;;;;;;;5074886;27;46065;-73
2021/10/23 14:10:36;;;;;;;;;12.00;10.25;;;;;;;;5074385;27;45497;-82
2021/10/23 14:13:02;;;;;;;;;9.50;9.50;;;;;;;;5098229;27;45321;-89
2021/10/23 14:15:27;;;;;;;;;13.75;12.75;;;;;;;;5097811;27;45385;-87
2021/10/23 14:17:52;;;;;;;;;14.50;13.25;;;;;;;;5077484;27;45427;-89
2021/10/23 14:20:18;;;;;;;;;12.25;11.25;;;;;;;;5076665;27;45369;-78
2021/10/23 14:22:43;;;;;;;;;9.25;9.25;;;;;;;;5077080;27;45479;-79
2021/10/23 14:25:11;;;;;;;;;12.25;11.00;;;;;;;;5057197;27;45326;-78
2021/10/23 14:27:55;;;;;;;;;18.00;18.00;;;;;;;;5093421;27;47507;-77
2021/10/23 14:30:20;;;;;;;;;10.00;9.75;;;;;;;;5094101;27;45435;-76
2021/10/23 14:32:46;;;;;;;;;11.00;9.00;;;;;;;;5079321;27;45446;-79
2021/10/23 14:35:12;;;;;;;;;18.50;15.75;;;;;;;;5077384;27;45404;-71
2021/10/23 14:37:38;;;;;;;;;12.75;11.75;;;;;;;;5076716;27;46878;-69
2021/10/23 14:40:04;;;;;;;;;10.25;10.25;;;;;;;;5054867;27;45324;-72
2021/10/23 14:42:30;;;;;;;;;12.25;11.25;;;;;;;;5077928;27;45466;-71
2021/10/23 14:44:55;;;;;;;;;11.50;11.00;;;;;;;;5078338;27;45245;-72